Time,TemperatureF,DewpointF,PressureIn,WindDirection,WindDirectionDegrees,WindSpeedMPH,WindSpeedGustMPH,Humidity,HourlyPrecipIn,Conditions,Clouds,dailyrainin,SoftwareType,DateUTC
2013-03-02 00:01:00,17.0,-5.0,-100.00,NNE,15,2.0,7.0,38,0.00,,,-99.99,,2013-03-02 06:01:00,
2013-03-02 00:11:00,17.0,-5.0,-100.00,NNE,15,2.0,7.0,38,0.00,,,-99.99,,2013-03-02 06:11:00,
2013-03-02 00:21:00,17.0,-5.0,-100.00,NNE,15,2.0,7.0,38,0.00,,,-99.99,,2013-03-02 06:21:00,
2013-03-02 00:52:00,14.0,-4.0,-100.00,NNE,15,3.0,6.0,44,0.00,,,-99.99,,2013-03-02 06:52:00,
2013-03-02 01:01:00,14.0,-4.0,-100.00,NNE,15,3.0,6.0,44,0.00,,,-99.99,,2013-03-02 07:01:00,
2013-03-02 01:11:00,14.0,-4.0,-100.00,NNE,15,3.0,6.0,44,0.00,,,-99.99,,2013-03-02 07:11:00,
2013-03-02 01:21:00,14.0,-4.0,-100.00,NNE,15,3.0,6.0,44,0.00,,,-99.99,,2013-03-02 07:21:00,
2013-03-02 01:52:00,11.0,-4.0,-100.00,North,0,1.0,2.0,51,0.00,,,-99.99,,2013-03-02 07:52:00,
2013-03-02 02:01:00,11.0,-4.0,-100.00,North,0,1.0,2.0,51,0.00,,,-99.99,,2013-03-02 08:01:00,
2013-03-02 02:11:00,11.0,-4.0,-100.00,North,0,1.0,2.0,51,0.00,,,-99.99,,2013-03-02 08:11:00,
2013-03-02 02:21:00,11.0,-4.0,-100.00,North,0,1.0,2.0,51,0.00,,,-99.99,,2013-03-02 08:21:00,
2013-03-02 02:52:00,8.0,-4.0,-100.00,NNW,345,0.0,2.0,57,0.00,,,-99.99,,2013-03-02 08:52:00,
2013-03-02 03:02:00,8.0,-4.0,-100.00,NNW,345,0.0,2.0,57,0.00,,,-99.99,,2013-03-02 09:02:00,
2013-03-02 03:11:00,8.0,-4.0,-100.00,NNW,345,0.0,2.0,57,0.00,,,-99.99,,2013-03-02 09:11:00,
2013-03-02 03:21:00,8.0,-4.0,-100.00,NNW,345,0.0,2.0,57,0.00,,,-99.99,,2013-03-02 09:21:00,
2013-03-02 03:52:00,9.0,-1.0,-100.00,NNW,345,1.0,3.0,63,0.00,,,-99.99,,2013-03-02 09:52:00,
2013-03-02 04:01:00,9.0,-1.0,-100.00,NNW,345,1.0,3.0,63,0.00,,,-99.99,,2013-03-02 10:01:00,
2013-03-02 04:16:00,9.0,-1.0,-100.00,NNW,345,1.0,3.0,63,0.00,,,-99.99,,2013-03-02 10:16:00,
2013-03-02 04:22:00,9.0,-1.0,-100.00,NNW,345,1.0,3.0,63,0.00,,,-99.99,,2013-03-02 10:22:00,
2013-03-02 04:52:00,8.0,-1.0,-100.00,NNW,330,0.0,3.0,67,0.00,,,-99.99,,2013-03-02 10:52:00,
2013-03-02 05:01:00,8.0,-1.0,-100.00,NNW,330,0.0,3.0,67,0.00,,,-99.99,,2013-03-02 11:01:00,
2013-03-02 05:11:00,8.0,-1.0,-100.00,NNW,330,0.0,3.0,67,0.00,,,-99.99,,2013-03-02 11:11:00,
2013-03-02 05:21:00,8.0,-1.0,-100.00,NNW,330,0.0,3.0,67,0.00,,,-99.99,,2013-03-02 11:21:00,
2013-03-02 05:52:00,2.0,-5.0,-100.00,NW,305,0.0,1.0,69,0.00,,,-99.99,,2013-03-02 11:52:00,
2013-03-02 06:02:00,2.0,-5.0,-100.00,NW,305,0.0,1.0,69,0.00,,,-99.99,,2013-03-02 12:02:00,
2013-03-02 06:11:00,2.0,-5.0,-100.00,NW,305,0.0,1.0,69,0.00,,,-99.99,,2013-03-02 12:11:00,
2013-03-02 06:21:00,2.0,-5.0,-100.00,NW,305,0.0,1.0,69,0.00,,,-99.99,,2013-03-02 12:21:00,
2013-03-02 06:53:00,1.0,-6.0,-100.00,North,5,0.0,1.0,72,0.00,,,-99.99,,2013-03-02 12:53:00,
2013-03-02 07:01:00,1.0,-6.0,-100.00,North,5,0.0,1.0,72,0.00,,,-99.99,,2013-03-02 13:01:00,
2013-03-02 07:11:00,1.0,-6.0,-100.00,North,5,0.0,1.0,72,0.00,,,-99.99,,2013-03-02 13:11:00,
2013-03-02 07:22:00,1.0,-6.0,-100.00,North,5,0.0,1.0,72,0.00,,,-99.99,,2013-03-02 13:22:00,
2013-03-02 07:52:00,4.0,-3.0,-100.00,NNW,340,1.0,2.0,72,0.00,,,-99.99,,2013-03-02 13:52:00,
2013-03-02 08:01:00,4.0,-3.0,-100.00,NNW,340,1.0,2.0,72,0.00,,,-99.99,,2013-03-02 14:01:00,
2013-03-02 08:11:00,4.0,-3.0,-100.00,NNW,340,1.0,2.0,72,0.00,,,-99.99,,2013-03-02 14:11:00,
2013-03-02 08:21:00,4.0,-3.0,-100.00,NNW,340,1.0,2.0,72,0.00,,,-99.99,,2013-03-02 14:21:00,
2013-03-02 08:52:00,18.0,3.0,-100.00,North,0,2.0,6.0,52,0.00,,,-99.99,,2013-03-02 14:52:00,
2013-03-02 09:02:00,18.0,3.0,-100.00,North,0,2.0,6.0,52,0.00,,,-99.99,,2013-03-02 15:02:00,
2013-03-02 09:11:00,18.0,3.0,-100.00,North,0,2.0,6.0,52,0.00,,,-99.99,,2013-03-02 15:11:00,
2013-03-02 09:21:00,18.0,3.0,-100.00,North,0,2.0,6.0,52,0.00,,,-99.99,,2013-03-02 15:21:00,
2013-03-02 09:52:00,25.0,1.0,-100.00,ENE,60,3.0,11.0,35,0.00,,,-99.99,,2013-03-02 15:52:00,
2013-03-02 10:02:00,25.0,1.0,-100.00,ENE,60,3.0,11.0,35,0.00,,,-99.99,,2013-03-02 16:02:00,
2013-03-02 10:11:00,25.0,1.0,-100.00,ENE,60,3.0,11.0,35,0.00,,,-99.99,,2013-03-02 16:11:00,
2013-03-02 10:21:00,25.0,1.0,-100.00,ENE,60,3.0,11.0,35,0.00,,,-99.99,,2013-03-02 16:21:00,
2013-03-02 10:52:00,27.0,1.0,-100.00,North,10,4.0,14.0,33,0.00,,,-99.99,,2013-03-02 16:52:00,
2013-03-02 11:01:00,27.0,1.0,-100.00,North,10,4.0,14.0,33,0.00,,,-99.99,,2013-03-02 17:01:00,
2013-03-02 11:11:00,27.0,1.0,-100.00,North,10,4.0,14.0,33,0.00,,,-99.99,,2013-03-02 17:11:00,
2013-03-02 11:21:00,27.0,1.0,-100.00,North,10,4.0,14.0,33,0.00,,,-99.99,,2013-03-02 17:21:00,
2013-03-02 11:52:00,26.0,-1.0,-100.00,NNW,340,5.0,12.0,30,0.00,,,-99.99,,2013-03-02 17:52:00,
2013-03-02 12:02:00,26.0,-1.0,-100.00,NNW,340,5.0,12.0,30,0.00,,,-99.99,,2013-03-02 18:02:00,
2013-03-02 12:11:00,26.0,-1.0,-100.00,NNW,340,5.0,12.0,30,0.00,,,-99.99,,2013-03-02 18:11:00,
2013-03-02 12:22:00,26.0,-1.0,-100.00,NNW,340,5.0,12.0,30,0.00,,,-99.99,,2013-03-02 18:22:00,
2013-03-02 12:52:00,29.0,-1.0,-100.00,South,180,1.0,12.0,26,0.00,,,-99.99,,2013-03-02 18:52:00,
2013-03-02 13:01:00,29.0,-1.0,-100.00,South,180,1.0,12.0,26,0.00,,,-99.99,,2013-03-02 19:01:00,
2013-03-02 13:11:00,29.0,-1.0,-100.00,South,180,1.0,12.0,26,0.00,,,-99.99,,2013-03-02 19:11:00,
2013-03-02 13:22:00,29.0,-1.0,-100.00,South,180,1.0,12.0,26,0.00,,,-99.99,,2013-03-02 19:22:00,
2013-03-02 13:52:00,30.0,-3.0,-100.00,North,350,5.0,12.0,23,0.00,,,-99.99,,2013-03-02 19:52:00,
2013-03-02 14:01:00,30.0,-3.0,-100.00,North,350,5.0,12.0,23,0.00,,,-99.99,,2013-03-02 20:01:00,
2013-03-02 14:11:00,30.0,-3.0,-100.00,North,350,5.0,12.0,23,0.00,,,-99.99,,2013-03-02 20:11:00,
2013-03-02 14:22:00,30.0,-3.0,-100.00,North,350,5.0,12.0,23,0.00,,,-99.99,,2013-03-02 20:22:00,
2013-03-02 14:53:00,31.0,-7.0,-100.00,North,0,5.0,12.0,19,0.00,,,-99.99,,2013-03-02 20:53:00,
2013-03-02 15:02:00,31.0,-7.0,-100.00,North,0,5.0,12.0,19,0.00,,,-99.99,,2013-03-02 21:02:00,
2013-03-02 15:11:00,31.0,-7.0,-100.00,North,0,5.0,12.0,19,0.00,,,-99.99,,2013-03-02 21:11:00,
2013-03-02 15:22:00,31.0,-7.0,-100.00,North,0,5.0,12.0,19,0.00,,,-99.99,,2013-03-02 21:22:00,
2013-03-02 15:52:00,31.0,-9.0,-100.00,North,5,6.0,9.0,17,0.00,,,-99.99,,2013-03-02 21:52:00,
2013-03-02 16:02:00,31.0,-9.0,-100.00,North,5,6.0,9.0,17,0.00,,,-99.99,,2013-03-02 22:02:00,
2013-03-02 16:11:00,31.0,-9.0,-100.00,North,5,6.0,9.0,17,0.00,,,-99.99,,2013-03-02 22:11:00,
2013-03-02 16:22:00,31.0,-9.0,-100.00,North,5,6.0,9.0,17,0.00,,,-99.99,,2013-03-02 22:22:00,
2013-03-02 16:52:00,29.0,-10.0,-100.00,North,0,3.0,9.0,18,0.00,,,-99.99,,2013-03-02 22:52:00,
2013-03-02 17:01:00,29.0,-10.0,-100.00,North,0,3.0,9.0,18,0.00,,,-99.99,,2013-03-02 23:01:00,
2013-03-02 17:11:00,29.0,-10.0,-100.00,North,0,3.0,9.0,18,0.00,,,-99.99,,2013-03-02 23:11:00,
2013-03-02 17:21:00,29.0,-10.0,-100.00,North,0,3.0,9.0,18,0.00,,,-99.99,,2013-03-02 23:21:00,
2013-03-02 17:52:00,27.0,-10.0,-100.00,NW,320,2.0,8.0,19,0.00,,,-99.99,,2013-03-02 23:52:00,
2013-03-02 18:02:00,27.0,-10.0,-100.00,NW,320,2.0,8.0,19,0.00,,,-99.99,,2013-03-03 00:02:00,
2013-03-02 18:11:00,27.0,-10.0,-100.00,NW,320,2.0,8.0,19,0.00,,,-99.99,,2013-03-03 00:11:00,
2013-03-02 18:22:00,27.0,-10.0,-100.00,NW,320,2.0,8.0,19,0.00,,,-99.99,,2013-03-03 00:22:00,
2013-03-02 18:52:00,21.0,-8.0,-100.00,NNW,345,1.0,2.0,27,0.00,,,-99.99,,2013-03-03 00:52:00,
2013-03-02 19:01:00,21.0,-8.0,-100.00,NNW,345,1.0,2.0,27,0.00,,,-99.99,,2013-03-03 01:01:00,
2013-03-02 19:11:00,21.0,-8.0,-100.00,NNW,345,1.0,2.0,27,0.00,,,-99.99,,2013-03-03 01:11:00,
2013-03-02 19:21:00,21.0,-8.0,-100.00,NNW,345,1.0,2.0,27,0.00,,,-99.99,,2013-03-03 01:21:00,
2013-03-02 19:52:00,17.0,-4.0,-100.00,SE,140,1.0,1.0,39,0.00,,,-99.99,,2013-03-03 01:52:00,
2013-03-02 20:01:00,17.0,-4.0,-100.00,SE,140,1.0,1.0,39,0.00,,,-99.99,,2013-03-03 02:01:00,
2013-03-02 20:11:00,17.0,-4.0,-100.00,SE,140,1.0,1.0,39,0.00,,,-99.99,,2013-03-03 02:11:00,
2013-03-02 20:21:00,17.0,-4.0,-100.00,SE,140,1.0,1.0,39,0.00,,,-99.99,,2013-03-03 02:21:00,
2013-03-02 20:52:00,14.0,-2.0,-100.00,SE,140,1.0,1.0,47,0.00,,,-99.99,,2013-03-03 02:52:00,
2013-03-02 21:01:00,14.0,-2.0,-100.00,SE,140,1.0,1.0,47,0.00,,,-99.99,,2013-03-03 03:01:00,
2013-03-02 21:11:00,14.0,-2.0,-100.00,SE,140,1.0,1.0,47,0.00,,,-99.99,,2013-03-03 03:11:00,
2013-03-02 21:21:00,14.0,-2.0,-100.00,SE,140,1.0,1.0,47,0.00,,,-99.99,,2013-03-03 03:21:00,
2013-03-02 21:52:00,13.0,-1.0,-100.00,SE,125,0.0,1.0,51,0.00,,,-99.99,,2013-03-03 03:52:00,
2013-03-02 22:01:00,13.0,-1.0,-100.00,SE,125,0.0,1.0,51,0.00,,,-99.99,,2013-03-03 04:01:00,
2013-03-02 22:11:00,13.0,-1.0,-100.00,SE,125,0.0,1.0,51,0.00,,,-99.99,,2013-03-03 04:11:00,
2013-03-02 22:21:00,13.0,-1.0,-100.00,SE,125,0.0,1.0,51,0.00,,,-99.99,,2013-03-03 04:21:00,
2013-03-02 22:52:00,11.0,-2.0,-100.00,NNE,20,0.0,0.0,55,0.00,,,-99.99,,2013-03-03 04:52:00,
2013-03-02 23:02:00,11.0,-2.0,-100.00,NNE,20,0.0,0.0,55,0.00,,,-99.99,,2013-03-03 05:02:00,
2013-03-02 23:11:00,11.0,-2.0,-100.00,NNE,20,0.0,0.0,55,0.00,,,-99.99,,2013-03-03 05:11:00,
2013-03-02 23:22:00,11.0,-2.0,-100.00,NNE,20,0.0,0.0,55,0.00,,,-99.99,,2013-03-03 05:22:00,
2013-03-02 23:52:00,8.0,-3.0,-100.00,NE,50,0.0,1.0,60,0.00,,,-99.99,,2013-03-03 05:52:00,